Airfield :







YOU CAN JOIN US ON...

 
LOGIN :

Register | Disclaimer

   EN    FR    IT 

 









Legend :    VFR   Marginal VFR   IFR   Intensive IFR   Very Intensive IFR
Visi :
Ceiling :
>= 8 km
>= 3000ft
5 to 8 km
1000 to 3000 ft
1500m to 5 km
500 to 1000 ft
800 to 1500m
200 to 500 ft
< 800m
< 200 ft
Symbols :   Thunderstorms  Fog  Heavy snow  Heavy precipitations  Wind > 20 kt






- Airport Elevation : 1166 ft


KMPV - Edward F Knapp State

CURRENT METAR :
  • 060551Z AUTO 31004KT 10SM FEW037 03/01 A3003 RMK AO2 SLP175 60004 T00330011 10089 20033 53004

EXPIRED METARs :
  • 060451Z AUTO 31009KT 10SM FEW037 BKN047 05/03 A3002 RMK AO2 RAE23 SLP172 P0003 T00500028 401221006
  • 060425Z AUTO 33005KT 10SM FEW017 BKN036 OVC050 05/03 A3002 RMK AO2 RAE23 P0003 T00500033
  • 060351Z AUTO 32009G14KT 7SM RA SCT023 BKN028 OVC049 06/03 A3002 RMK AO2 RAB47 SLP171 P0001 T00610033

TAF KMPV
Valid from the 06 at 06:00 until the 07 at 06:00 UTC


060539Z 0606/0706 31008KT P6SM BKN045
FM061900 31012KT P6SM SKC
FM062300 30005KT P6SM FEW180
FM070000 VRB03KT P6SM FEW150
FM070300 27005KT P6SM SCT100



MET'MAP, your aeronautical weather chart ! - Copyright ORBIFLY December 2007 - Disclaimer

ORBIFLY MET'MAP TEAM :

Programming & Development : Alexandra Zaïnal
Concept & original design : Baudouin d'Aumeries
Assistance for programming : Marc-Olivier Méhu
Technical & hardware support : Manuel Goepfert

Contact : metmap@orbifly.com




SOURCES & CREDITS :

   NOAA